createdAt,value
2019-02-05T00:01:14.387Z,23.97
2019-02-05T00:03:43.865Z,25.00
2019-02-05T00:06:13.243Z,23.53
2019-02-05T00:08:42.855Z,26.43
2019-02-05T00:11:12.222Z,23.33
2019-02-05T00:13:41.621Z,23.90
2019-02-05T00:16:11.019Z,26.27
2019-02-05T00:18:40.451Z,23.53
2019-02-05T00:21:09.849Z,23.63
2019-02-05T00:23:39.222Z,24.80
2019-02-05T00:26:08.622Z,23.87
2019-02-05T00:28:38.039Z,26.13
2019-02-05T00:31:07.398Z,23.77
2019-02-05T00:33:36.853Z,24.60
2019-02-05T00:36:06.388Z,26.03
2019-02-05T00:38:35.763Z,23.60
2019-02-05T00:41:05.454Z,25.10
2019-02-05T00:43:35.219Z,24.03
2019-02-05T00:46:04.828Z,25.87
2019-02-05T00:48:34.204Z,26.23
2019-02-05T00:51:03.634Z,26.53
2019-02-05T00:53:33.055Z,24.83
2019-02-05T00:56:02.435Z,26.47
2019-02-05T00:58:31.891Z,25.03
2019-02-05T01:01:01.376Z,25.53
2019-02-05T01:03:30.772Z,24.00
2019-02-05T01:06:00.488Z,24.03
2019-02-05T01:08:29.876Z,25.13
2019-02-05T01:10:59.651Z,25.37
2019-02-05T01:13:29.039Z,26.50
2019-02-05T01:15:59.019Z,24.27
2019-02-05T01:18:28.419Z,25.87
2019-02-05T01:20:58.095Z,25.07
2019-02-05T01:23:27.562Z,24.60
2019-02-05T01:25:56.916Z,27.00
2019-02-05T01:28:26.303Z,25.50
2019-02-05T01:30:55.752Z,26.33
2019-02-05T01:33:25.142Z,25.17
2019-02-05T01:35:54.551Z,25.87
2019-02-05T01:38:24.003Z,25.40
2019-02-05T01:40:53.415Z,26.20
2019-02-05T01:43:22.792Z,24.63
2019-02-05T01:45:52.215Z,26.67
2019-02-05T01:48:21.583Z,25.80
2019-02-05T01:50:51.020Z,25.70
2019-02-05T01:53:20.409Z,27.30
2019-02-05T01:55:49.802Z,26.33
2019-02-05T01:58:19.229Z,27.53
2019-02-05T02:00:48.607Z,26.50
2019-02-05T02:03:18.022Z,25.77
2019-02-05T02:05:47.595Z,26.27
2019-02-05T02:08:17.105Z,26.20
2019-02-05T02:10:46.476Z,26.30
2019-02-05T02:13:15.850Z,25.33
2019-02-05T02:15:45.271Z,25.17
2019-02-05T02:18:14.639Z,27.10
2019-02-05T02:20:44.051Z,26.87
2019-02-05T02:23:13.440Z,24.20
2019-02-05T02:25:42.855Z,25.60
2019-02-05T02:28:12.224Z,25.50
2019-02-05T02:30:41.832Z,25.07
2019-02-05T02:33:11.204Z,26.07
2019-02-05T02:35:40.594Z,25.50
2019-02-05T02:38:09.994Z,23.53
2019-02-05T02:40:39.363Z,25.97
2019-02-05T02:43:08.783Z,24.63
2019-02-05T02:45:38.159Z,24.63
2019-02-05T02:48:07.591Z,26.40
2019-02-05T02:50:36.975Z,24.30
2019-02-05T02:53:06.431Z,24.10
2019-02-05T02:55:35.812Z,22.80
2019-02-05T02:58:05.211Z,22.67
2019-02-05T03:00:34.602Z,23.17
2019-02-05T03:03:04.177Z,23.87
2019-02-05T03:05:33.576Z,19.43
2019-02-05T03:08:02.990Z,19.80
2019-02-05T03:10:32.362Z,19.50
2019-02-05T03:13:01.746Z,18.60
2019-02-05T03:15:32.166Z,16.73
2019-02-05T03:18:01.491Z,17.63
2019-02-05T03:20:31.629Z,17.77
2019-02-05T03:23:01.036Z,17.20
2019-02-05T03:25:30.419Z,16.33
2019-02-05T03:27:59.826Z,16.87
2019-02-05T03:30:29.204Z,16.40
2019-02-05T03:32:58.858Z,16.40
2019-02-05T03:35:28.223Z,15.97
2019-02-05T03:37:57.972Z,17.37
2019-02-05T03:41:00.392Z,15.70
2019-02-05T03:43:29.879Z,23.37
2019-02-05T03:46:00.765Z,15.73
2019-02-05T03:48:30.728Z,17.27
2019-02-05T03:51:42.009Z,18.73
2019-02-05T03:55:00.487Z,15.57
2019-02-05T03:57:57.853Z,19.60
2019-02-05T04:01:04.028Z,18.30
2019-02-05T04:04:07.724Z,16.57
2019-02-05T04:07:10.698Z,16.63
2019-02-05T04:10:14.336Z,18.37
2019-02-05T04:13:09.723Z,18.63
2019-02-05T04:15:48.308Z,18.43
2019-02-05T04:19:01.892Z,17.63
2019-02-05T04:22:05.046Z,19.47
2019-02-05T04:25:02.261Z,17.57
2019-02-05T04:28:00.771Z,16.67
2019-02-05T04:30:39.163Z,17.13
2019-02-05T04:33:24.856Z,18.60
2019-02-05T04:36:50.191Z,18.40
2019-02-05T04:40:04.997Z,16.93
2019-02-05T04:43:04.577Z,18.07
2019-02-05T04:46:29.729Z,18.43
2019-02-05T04:49:52.262Z,18.53
2019-02-05T04:53:05.556Z,18.00
2019-02-05T04:55:41.804Z,18.73
2019-02-05T04:58:41.890Z,18.60
2019-02-05T05:01:49.519Z,18.60
2019-02-05T05:04:36.129Z,18.37
2019-02-05T05:07:30.893Z,18.00
2019-02-05T05:10:00.782Z,18.17
2019-02-05T05:12:30.779Z,19.23
2019-02-05T05:15:00.779Z,17.67
2019-02-05T05:17:30.130Z,17.67
2019-02-05T05:19:59.537Z,19.47
2019-02-05T05:22:28.924Z,18.77
2019-02-05T05:24:58.835Z,17.60
2019-02-05T05:27:28.515Z,20.47
2019-02-05T05:29:58.008Z,19.67
2019-02-05T05:32:27.506Z,19.17
2019-02-05T05:34:56.879Z,18.50
2019-02-05T05:37:26.319Z,21.07
2019-02-05T05:39:55.784Z,19.73
2019-02-05T05:42:26.851Z,17.93
2019-02-05T05:44:56.519Z,18.47
2019-02-05T05:47:25.931Z,20.17
2019-02-05T05:49:55.323Z,18.97
2019-02-05T05:52:24.828Z,20.33
2019-02-05T05:54:54.222Z,18.60
2019-02-05T05:57:23.612Z,21.00
2019-02-05T05:59:53.017Z,19.77
2019-02-05T06:02:22.397Z,20.37
2019-02-05T06:04:51.816Z,20.50
2019-02-05T06:07:21.182Z,20.00
2019-02-05T06:09:50.593Z,19.93
2019-02-05T06:12:19.974Z,19.60
2019-02-05T06:14:49.791Z,20.17
2019-02-05T06:17:19.192Z,19.20
2019-02-05T06:19:48.565Z,19.87
2019-02-05T06:22:17.992Z,19.33
2019-02-05T06:24:47.375Z,19.40
2019-02-05T06:27:16.789Z,20.80
2019-02-05T06:29:46.506Z,19.93
2019-02-05T06:32:15.913Z,20.33
2019-02-05T06:34:45.299Z,20.87
2019-02-05T06:37:14.732Z,29.70
2019-02-05T06:39:44.163Z,23.87
2019-02-05T06:42:13.575Z,25.83
2019-02-05T06:44:43.079Z,26.30
2019-02-05T06:47:12.458Z,28.03
2019-02-05T06:49:41.859Z,27.83
2019-02-05T06:52:11.230Z,28.87
2019-02-05T06:54:40.648Z,26.63
2019-02-05T06:57:10.032Z,27.50
2019-02-05T06:59:39.462Z,25.73
2019-02-05T07:02:09.719Z,25.70
2019-02-05T07:04:39.136Z,25.53
2019-02-05T07:07:08.536Z,28.63
2019-02-05T07:09:37.904Z,28.90
2019-02-05T07:12:07.575Z,29.43
2019-02-05T07:14:36.951Z,26.33
2019-02-05T07:17:06.689Z,28.07
2019-02-05T07:19:36.339Z,27.23
2019-02-05T07:22:05.959Z,26.03
2019-02-05T07:24:35.348Z,28.40
2019-02-05T07:27:04.742Z,28.77
2019-02-05T07:29:34.186Z,28.27
2019-02-05T07:32:03.572Z,26.50
2019-02-05T07:34:32.993Z,28.03
2019-02-05T07:37:02.397Z,27.50
2019-02-05T07:39:31.866Z,27.90
2019-02-05T07:42:01.234Z,28.93
2019-02-05T07:44:30.908Z,28.00
2019-02-05T07:47:00.307Z,27.20
2019-02-05T07:49:29.680Z,32.37
2019-02-05T07:51:59.584Z,29.37
2019-02-05T07:54:28.968Z,29.93
2019-02-05T07:56:58.378Z,29.33
2019-02-05T07:59:27.766Z,28.73
2019-02-05T08:01:57.262Z,29.67
2019-02-05T08:04:26.643Z,29.87
2019-02-05T08:06:56.031Z,29.67
2019-02-05T08:09:25.640Z,29.80
2019-02-05T08:11:55.204Z,29.40
2019-02-05T08:14:24.607Z,26.77
2019-02-05T08:16:53.983Z,29.10
2019-02-05T08:19:23.398Z,29.50
2019-02-05T08:21:52.763Z,27.90
2019-02-05T08:24:22.187Z,27.37
2019-02-05T08:26:51.908Z,26.23
2019-02-05T08:29:21.956Z,26.83
2019-02-05T08:31:51.410Z,26.90
2019-02-05T08:34:20.883Z,25.17
2019-02-05T08:36:50.274Z,27.97
2019-02-05T08:39:19.684Z,27.83
2019-02-05T08:41:49.075Z,27.57
2019-02-05T08:44:18.562Z,26.53
2019-02-05T08:46:47.957Z,30.53
2019-02-05T08:49:17.360Z,27.60
2019-02-05T08:51:46.708Z,25.13
2019-02-05T08:54:16.115Z,27.80
2019-02-05T08:56:45.515Z,26.57
2019-02-05T08:59:15.119Z,25.03
2019-02-05T09:01:44.511Z,25.17
2019-02-05T09:04:13.899Z,23.20
2019-02-05T09:06:43.309Z,24.77
2019-02-05T09:09:12.680Z,25.27
2019-02-05T09:11:42.176Z,24.63
2019-02-05T09:14:13.158Z,24.27
2019-02-05T09:16:42.586Z,26.50
2019-02-05T09:19:12.000Z,27.70
2019-02-05T09:21:41.391Z,33.53
2019-02-05T09:24:10.836Z,26.20
2019-02-05T09:26:40.213Z,26.17
2019-02-05T09:29:09.587Z,27.50
2019-02-05T09:31:39.111Z,26.63
2019-02-05T09:34:08.479Z,27.53
2019-02-05T09:36:37.899Z,27.90
2019-02-05T09:39:08.572Z,28.23
2019-02-05T09:41:38.064Z,28.73
2019-02-05T09:44:07.491Z,30.33
2019-02-05T09:46:36.869Z,29.30
2019-02-05T09:49:06.489Z,28.83
2019-02-05T09:51:35.876Z,26.90
2019-02-05T09:54:05.483Z,28.93
2019-02-05T09:56:34.857Z,28.57
2019-02-05T09:59:04.708Z,28.10
2019-02-05T10:01:34.099Z,32.93
2019-02-05T10:04:03.579Z,29.97
2019-02-05T10:06:32.987Z,38.60
2019-02-05T10:09:02.387Z,33.27
2019-02-05T10:11:31.804Z,29.93
2019-02-05T10:14:01.185Z,29.80
2019-02-05T10:16:30.554Z,27.93
2019-02-05T10:18:59.947Z,27.80
2019-02-05T10:21:29.619Z,27.60
2019-02-05T10:23:59.030Z,27.87
2019-02-05T10:26:28.406Z,32.50
2019-02-05T10:28:57.828Z,26.93
2019-02-05T10:31:27.225Z,26.17
2019-02-05T10:33:56.603Z,26.57
2019-02-05T10:36:26.032Z,29.27
2019-02-05T10:38:55.428Z,25.47
2019-02-05T10:41:24.930Z,25.80
2019-02-05T10:43:54.297Z,26.23
2019-02-05T10:46:23.666Z,25.80
2019-02-05T10:48:53.067Z,28.87
2019-02-05T10:51:22.471Z,27.20
2019-02-05T10:53:52.523Z,26.07
2019-02-05T10:56:21.892Z,28.23
2019-02-05T10:58:51.282Z,28.27
2019-02-05T11:01:20.679Z,27.87
2019-02-05T11:03:50.064Z,27.83
2019-02-05T11:06:20.066Z,27.77
2019-02-05T11:08:49.667Z,28.67
2019-02-05T11:11:19.075Z,28.97
2019-02-05T11:13:48.445Z,26.60
2019-02-05T11:16:17.823Z,29.03
2019-02-05T11:18:47.355Z,27.13
2019-02-05T11:21:16.731Z,25.90
2019-02-05T11:23:46.147Z,28.23
2019-02-05T11:26:15.839Z,30.67
2019-02-05T11:28:45.335Z,25.63
2019-02-05T11:31:14.718Z,29.03
2019-02-05T11:33:44.101Z,34.60
2019-02-05T11:36:13.490Z,27.63
2019-02-05T11:38:42.881Z,26.73
2019-02-05T11:41:13.716Z,27.63
2019-02-05T11:43:43.348Z,27.40
2019-02-05T11:46:12.761Z,27.27
2019-02-05T11:48:42.142Z,27.47
2019-02-05T11:51:11.548Z,27.93
2019-02-05T11:53:40.948Z,26.20
2019-02-05T11:56:10.399Z,27.47
2019-02-05T11:58:40.077Z,29.00
2019-02-05T12:01:22.400Z,31.30
2019-02-05T12:03:51.888Z,29.57
2019-02-05T12:06:21.310Z,28.00
2019-02-05T12:08:50.687Z,28.10
2019-02-05T12:11:20.064Z,28.93
2019-02-05T12:13:49.479Z,28.67
2019-02-05T12:16:18.867Z,30.33
2019-02-05T12:18:48.268Z,29.20
2019-02-05T12:21:17.644Z,30.50
2019-02-05T12:23:47.160Z,31.37
2019-02-05T12:26:16.556Z,33.80
2019-02-05T12:28:46.165Z,31.03
2019-02-05T12:31:15.527Z,31.87
2019-02-05T12:33:44.900Z,31.60
2019-02-05T12:36:14.407Z,31.83
2019-02-05T12:38:43.791Z,31.17
2019-02-05T12:41:13.209Z,30.10
2019-02-05T12:43:42.603Z,32.23
2019-02-05T12:46:12.147Z,31.57
2019-02-05T12:48:41.503Z,30.47
2019-02-05T12:51:10.921Z,33.40
2019-02-05T12:53:40.328Z,31.63
2019-02-05T12:56:09.705Z,32.47
2019-02-05T12:58:39.115Z,33.40
2019-02-05T13:01:08.783Z,33.40
2019-02-05T13:03:38.168Z,35.03
2019-02-05T13:06:07.644Z,35.83
2019-02-05T13:08:37.050Z,33.63
2019-02-05T13:11:06.544Z,36.47
2019-02-05T13:13:36.179Z,33.77
2019-02-05T13:16:05.764Z,37.67
2019-02-05T13:18:35.155Z,33.23
2019-02-05T13:21:04.575Z,32.83
2019-02-05T13:23:33.951Z,32.30
2019-02-05T13:26:03.383Z,31.47
2019-02-05T13:28:32.759Z,37.43
2019-02-05T13:31:08.192Z,30.47
2019-02-05T13:33:33.188Z,30.33
2019-02-05T13:36:02.575Z,32.27
2019-02-05T13:38:31.966Z,28.60
2019-02-05T13:41:01.342Z,32.07
2019-02-05T13:43:30.795Z,31.97
2019-02-05T13:46:00.207Z,28.03
2019-02-05T13:48:29.552Z,29.77
2019-02-05T13:50:58.968Z,27.50
2019-02-05T13:53:28.352Z,29.03
2019-02-05T13:55:58.732Z,28.67
2019-02-05T13:58:28.145Z,26.23
2019-02-05T14:00:57.598Z,25.10
2019-02-05T14:03:26.976Z,29.17
2019-02-05T14:05:56.383Z,27.73
2019-02-05T14:08:25.771Z,30.40
2019-02-05T14:10:55.201Z,30.93
2019-02-05T14:13:24.596Z,32.80
2019-02-05T14:15:54.307Z,114.07
2019-02-05T14:18:23.728Z,26.33
2019-02-05T14:20:53.248Z,45.67
2019-02-05T14:23:22.742Z,28.87
2019-02-05T14:25:52.139Z,29.13
2019-02-05T14:28:21.508Z,29.47
2019-02-05T14:30:56.127Z,28.73
2019-02-05T14:33:27.003Z,27.73
2019-02-05T14:35:56.661Z,29.60
2019-02-05T14:38:26.360Z,28.50
2019-02-05T14:40:55.839Z,28.57
2019-02-05T14:43:25.541Z,28.87
2019-02-05T14:45:55.007Z,31.77
2019-02-05T14:48:24.613Z,32.97
2019-02-05T14:50:54.028Z,31.77
2019-02-05T14:53:23.403Z,30.70
2019-02-05T14:55:52.803Z,30.80
2019-02-05T14:58:22.491Z,31.20
2019-02-05T15:00:51.879Z,29.93
2019-02-05T15:03:21.307Z,30.23
2019-02-05T15:05:50.684Z,34.60
2019-02-05T15:08:20.481Z,30.37
2019-02-05T15:10:49.872Z,29.13
2019-02-05T15:13:19.264Z,29.00
2019-02-05T15:15:48.717Z,30.83
2019-02-05T15:18:20.187Z,28.47
2019-02-05T15:20:50.513Z,30.50
2019-02-05T15:23:20.387Z,30.53
2019-02-05T15:25:49.898Z,30.03
2019-02-05T15:28:19.383Z,32.10
2019-02-05T15:30:48.719Z,29.87
2019-02-05T15:33:35.308Z,31.30
2019-02-05T15:36:33.056Z,31.10
2019-02-05T15:39:02.621Z,38.13
2019-02-05T15:41:32.008Z,30.73
2019-02-05T15:44:01.537Z,30.17
2019-02-05T15:46:31.929Z,29.23
2019-02-05T15:49:01.309Z,30.30
2019-02-05T15:51:30.717Z,30.33
2019-02-05T15:54:00.120Z,31.30
2019-02-05T15:56:29.615Z,31.53
2019-02-05T15:58:59.071Z,31.20
2019-02-05T16:01:28.784Z,32.70
2019-02-05T16:03:58.169Z,32.03
2019-02-05T16:06:27.547Z,31.50
2019-02-05T16:08:56.964Z,31.47
2019-02-05T16:11:26.332Z,33.73
2019-02-05T16:13:55.719Z,31.00
2019-02-05T16:16:25.397Z,31.50
2019-02-05T16:18:54.802Z,30.50
2019-02-05T16:21:24.160Z,31.20
2019-02-05T16:23:53.559Z,48.40
2019-02-05T16:26:22.940Z,32.07
2019-02-05T16:28:52.344Z,33.00
2019-02-05T16:31:22.055Z,34.10
2019-02-05T16:33:51.443Z,33.70
2019-02-05T16:36:20.846Z,34.30
2019-02-05T16:38:50.216Z,36.23
2019-02-05T16:41:19.723Z,35.37
2019-02-05T16:43:49.119Z,33.67
2019-02-05T16:46:18.724Z,34.00
2019-02-05T16:48:48.115Z,35.37
2019-02-05T16:51:17.499Z,33.20
2019-02-05T16:53:46.911Z,33.80
2019-02-05T16:56:17.882Z,34.00
2019-02-05T16:58:47.500Z,34.93
2019-02-05T17:01:17.201Z,33.23
2019-02-05T17:03:46.706Z,33.87
2019-02-05T17:06:16.094Z,33.80
2019-02-05T17:08:45.507Z,36.10
2019-02-05T17:11:14.923Z,34.70
2019-02-05T17:13:44.343Z,34.70
2019-02-05T17:16:13.942Z,35.83
2019-02-05T17:18:43.315Z,34.50
2019-02-05T17:21:12.807Z,36.50
2019-02-05T17:23:42.186Z,35.57
2019-02-05T17:26:11.579Z,35.33
2019-02-05T17:28:41.003Z,35.03
2019-02-05T17:31:10.587Z,34.87
2019-02-05T17:33:39.988Z,42.03
2019-02-05T17:36:09.369Z,41.10
2019-02-05T17:38:38.872Z,33.57
2019-02-05T17:41:08.332Z,75.93
2019-02-05T17:43:37.760Z,32.83
2019-02-05T17:46:07.327Z,39.67
2019-02-05T17:48:36.715Z,35.17
2019-02-05T17:51:06.121Z,37.07
2019-02-05T17:53:35.497Z,37.57
2019-02-05T17:56:05.071Z,41.33
2019-02-05T17:58:34.464Z,34.57
2019-02-05T18:01:09.228Z,41.67
2019-02-05T18:03:38.693Z,37.83
2019-02-05T18:06:08.489Z,32.20
2019-02-05T18:08:37.907Z,29.47
2019-02-05T18:11:07.727Z,30.87
2019-02-05T18:13:37.155Z,32.23
2019-02-05T18:16:17.469Z,30.23
2019-02-05T18:18:46.886Z,31.87
2019-02-05T18:21:16.295Z,32.93
2019-02-05T18:23:45.667Z,31.53
2019-02-05T18:26:15.071Z,32.83
2019-02-05T18:28:44.443Z,32.77
2019-02-05T18:31:13.870Z,32.77
2019-02-05T18:33:43.245Z,31.67
2019-02-05T18:36:12.968Z,32.63
2019-02-05T18:38:42.372Z,34.93
2019-02-05T18:41:11.743Z,35.97
2019-02-05T18:43:41.172Z,35.23
2019-02-05T18:46:12.696Z,34.80
2019-02-05T18:48:41.888Z,38.07
2019-02-05T18:51:11.218Z,32.77
2019-02-05T18:53:40.637Z,40.57
2019-02-05T18:56:10.420Z,44.63
2019-02-05T18:58:39.813Z,42.60
2019-02-05T19:01:09.218Z,41.30
2019-02-05T19:03:38.856Z,41.87
2019-02-05T19:06:08.348Z,44.90
2019-02-05T19:08:37.747Z,42.20
2019-02-05T19:11:07.219Z,39.10
2019-02-05T19:13:36.601Z,40.83
2019-02-05T19:16:06.106Z,47.07
2019-02-05T19:18:35.526Z,41.63
2019-02-05T19:21:05.187Z,39.67
2019-02-05T19:23:34.604Z,41.53
2019-02-05T19:26:16.772Z,39.70
2019-02-05T19:28:46.175Z,38.70
2019-02-05T19:31:26.538Z,39.70
2019-02-05T19:33:55.935Z,38.17
2019-02-05T19:36:25.607Z,38.60
2019-02-05T19:38:55.106Z,38.67
2019-02-05T19:41:24.486Z,42.90
2019-02-05T19:43:53.891Z,38.47
2019-02-05T19:46:41.117Z,39.43
2019-02-05T19:49:22.944Z,37.30
2019-02-05T19:51:52.323Z,35.87
2019-02-05T19:54:21.999Z,38.13
2019-02-05T19:56:51.406Z,39.20
2019-02-05T19:59:21.204Z,38.97
2019-02-05T20:01:50.638Z,37.03
2019-02-05T20:04:20.022Z,39.33
2019-02-05T20:06:49.402Z,37.03
2019-02-05T20:09:18.788Z,36.10
2019-02-05T20:11:48.211Z,39.47
2019-02-05T20:14:17.586Z,38.97
2019-02-05T20:16:46.967Z,37.00
2019-02-05T20:19:16.372Z,39.77
2019-02-05T20:21:46.115Z,37.20
2019-02-05T20:24:15.536Z,39.23
2019-02-05T20:26:47.549Z,40.10
2019-02-05T20:29:16.011Z,37.77
2019-02-05T20:31:45.402Z,38.97
2019-02-05T20:34:14.764Z,39.33
2019-02-05T20:36:44.359Z,38.13
2019-02-05T20:39:15.728Z,37.33
2019-02-05T20:41:45.131Z,34.90
2019-02-05T20:44:14.533Z,37.13
2019-02-05T20:46:44.032Z,37.07
2019-02-05T20:49:13.446Z,60.80
2019-02-05T20:51:42.837Z,40.07
2019-02-05T20:54:12.255Z,37.30
2019-02-05T20:56:41.705Z,34.50
2019-02-05T20:59:11.131Z,63.80
2019-02-05T21:01:40.503Z,63.43
2019-02-05T21:04:09.905Z,48.67
2019-02-05T21:06:39.274Z,39.60
2019-02-05T21:09:19.140Z,41.30
2019-02-05T21:11:48.640Z,33.57
2019-02-05T21:14:18.243Z,36.57
2019-02-05T21:16:47.851Z,49.37
2019-02-05T21:19:17.187Z,34.80
2019-02-05T21:21:46.624Z,32.43
2019-02-05T21:24:16.003Z,33.13
2019-02-05T21:26:45.423Z,41.53
2019-02-05T21:29:14.806Z,31.53
2019-02-05T21:31:44.215Z,31.63
2019-02-05T21:34:15.295Z,32.47
2019-02-05T21:36:44.707Z,32.20
2019-02-05T21:39:14.292Z,29.83
2019-02-05T21:41:43.669Z,34.73
2019-02-05T21:44:13.099Z,37.83
2019-02-05T21:46:42.469Z,32.53
2019-02-05T21:49:11.943Z,29.37
2019-02-05T21:51:41.718Z,27.23
2019-02-05T21:54:12.491Z,30.67
2019-02-05T21:56:41.883Z,42.43
2019-02-05T21:59:11.251Z,28.87
2019-02-05T22:01:40.706Z,33.13
2019-02-05T22:04:10.331Z,30.17
2019-02-05T22:06:39.966Z,32.07
2019-02-05T22:09:12.118Z,36.60
2019-02-05T22:11:41.505Z,42.77
2019-02-05T22:14:10.923Z,50.97
2019-02-05T22:16:40.356Z,48.37
2019-02-05T22:19:10.603Z,42.47
2019-02-05T22:21:40.181Z,36.47
2019-02-05T22:24:10.143Z,41.83
2019-02-05T22:26:40.014Z,38.43
2019-02-05T22:29:10.005Z,40.97
2019-02-05T22:31:39.404Z,32.27
2019-02-05T22:34:09.595Z,31.43
2019-02-05T22:36:39.151Z,27.10
2019-02-05T22:39:10.493Z,31.13
2019-02-05T22:41:40.415Z,24.80
2019-02-05T22:44:09.795Z,24.23
2019-02-05T22:46:39.435Z,26.20
2019-02-05T22:49:08.971Z,24.17
2019-02-05T22:51:38.613Z,27.77
2019-02-05T22:54:07.999Z,29.53
2019-02-05T22:56:37.387Z,28.07
2019-02-05T22:59:07.083Z,27.50
2019-02-05T23:01:57.883Z,27.10
2019-02-05T23:05:12.980Z,24.33
2019-02-05T23:07:42.404Z,23.93
2019-02-05T23:11:03.554Z,25.03
2019-02-05T23:13:27.239Z,24.37
2019-02-05T23:15:56.859Z,24.57
2019-02-05T23:18:26.287Z,21.90
2019-02-05T23:20:55.683Z,20.90
2019-02-05T23:23:25.098Z,24.77
2019-02-05T23:25:54.506Z,23.07
2019-02-05T23:28:23.931Z,20.60
2019-02-05T23:30:53.616Z,22.23
2019-02-05T23:33:23.028Z,20.43
2019-02-05T23:35:52.931Z,22.93
2019-02-05T23:38:29.471Z,23.07
2019-02-05T23:40:53.436Z,20.47
2019-02-05T23:43:22.825Z,21.03
2019-02-05T23:46:01.393Z,21.87
2019-02-05T23:48:23.564Z,23.53
2019-02-05T23:50:52.991Z,25.53
2019-02-05T23:53:22.368Z,27.27
2019-02-05T23:55:51.811Z,24.07
2019-02-05T23:58:21.203Z,25.80
